Where is Escola Práctica de Artilharia in Portugal?

Escola Práctica de Artilharia is situated in the region Evora in Portugal!

Search the name of a city:

Escoire, Escondido, Escó, Escolin, Escota

Here you will find the location of Escola Práctica de Artilharia on a map.
To see how it currently looks like outside, below are some pictures of the area from online web cameras.
You can also find the distance to the main cities in the region and to cities in the rest of Portugal.

All places in the world called .

new

Where is Escola Práctica de Artilharia on the map?


Webcams near Escola Práctica de Artilharia

Vasco Carão > South: Garrocheira, Benavente - Airport.


Vasco Carão > South: Garrocheira, Benavente - Airport - Day time
Current
Vasco Carão > South: Garrocheira, Benavente - Airport - Current

Benavente > North-East: AIrport, METAR: BENAV 180005Z 36004KT 17/14 Q1015.


Benavente > North-East: AIrport, METAR: BENAV 180005Z 36004KT 17/14 Q1015 - Day time
Current
Benavente > North-East: AIrport, METAR: BENAV 180005Z 36004KT 17/14 Q1015 - Current

Comporta: Distrito de - Praia do Carvalhal°.


Comporta: Distrito de - Praia do Carvalhal° - Day time
Current
Comporta: Distrito de - Praia do Carvalhal° - Current

Webcams provided by webcams.travel

Distances

Where is Escola Práctica de Artilharia relative to other places?

Top 10 cities in Evora and distance from Escola Práctica de Artilharia.

City#Populationkmmiles
Évora1458515031
Montemor-o-Novo2128542113
Vendas Novas31124800
Estremoz493497748
Reguengos de Monsaraz572178553
Redondo658457949
Vila Viçosa754849056
Borba845868955
Adaval9-7446
Agua d' Alte10-7748

Top 10 cities in Portugal and distance from Escola Práctica de Artilharia.

City # Populationkmmiles
Lisbon15177986037
Porto2249630275171
Amadora31788566943
Braga4121393319198
Setúbal51171094226
Coimbra6106580171106
Queluz71033986943
Funchal8980411015631
Vila Nova de Gaia970810274170
Loures10662306440

Alerts and advice Portugal

Advice and information about traveling and security in Portugal.

With a travel advise, tourists can be informed about security risks during traveling or vacation in a foreign country. Be informed about the risks of kidnapping, armed robbery, bombings, natural disasters or war. Know which areas are unsafe in Portugalo. Be vigilant, or avoid certain areas when on vacation in Portugal.

Alerts and advice



Travel information Portugal

Information on travel documents, visa applications and the cost of a visa.
Contact information of embassies in Portugal.
Different types of travel insurance.

Travel information